Time;durP1;ratioP1;P1;durP2;ratioP2;P2;SDS_P1;SDS_P2;PMS_P1;PMS_P2;Temp;Humidity;BMP_temperature;BMP_pressure;BME280_temperature;BME280_humidity;BME280_pressure;Samples;Min_cycle;Max_cycle;Signal;HPM_P1;HPM_P2
2023/06/02 00:00:00;;;;;;;6.83;5.27;;;;;;;;;;5092590;28;20207;-75
2023/06/02 00:02:29;;;;;;;6.33;5.60;;;;;;;;;;5091584;28;20181;-75
2023/06/02 00:04:59;;;;;;;6.60;5.90;;;;;;;;;;5091075;28;20274;-75
2023/06/02 00:07:29;;;;;;;6.77;5.13;;;;;;;;;;5100409;28;20656;-75
2023/06/02 00:09:58;;;;;;;6.20;5.20;;;;;;;;;;5113048;28;20203;-75
2023/06/02 00:12:25;;;;;;;9.00;5.93;;;;;;;;;;5111951;28;20187;-76
2023/06/02 00:14:52;;;;;;;8.13;6.00;;;;;;;;;;5108784;28;20172;-75
2023/06/02 00:17:19;;;;;;;7.57;6.17;;;;;;;;;;5099524;28;20172;-75
2023/06/02 00:19:47;;;;;;;7.97;5.50;;;;;;;;;;5112682;28;20279;-75
2023/06/02 00:22:14;;;;;;;7.37;5.87;;;;;;;;;;5111467;28;20180;-76
2023/06/02 00:24:40;;;;;;;10.13;5.90;;;;;;;;;;5108611;28;20644;-73
2023/06/02 00:27:09;;;;;;;8.00;5.17;;;;;;;;;;5103356;28;20917;-74
2023/06/02 00:29:36;;;;;;;7.20;4.90;;;;;;;;;;5093168;28;20268;-75
2023/06/02 00:32:03;;;;;;;7.30;5.50;;;;;;;;;;5089968;28;20173;-75
2023/06/02 00:34:29;;;;;;;6.40;5.40;;;;;;;;;;5091798;28;20172;-75
2023/06/02 00:36:55;;;;;;;6.37;5.60;;;;;;;;;;5099642;28;20607;-75
2023/06/02 00:39:21;;;;;;;7.27;5.70;;;;;;;;;;5090548;28;20591;-74
2023/06/02 00:41:48;;;;;;;7.07;5.37;;;;;;;;;;5091806;28;20176;-75
2023/06/02 00:44:15;;;;;;;8.07;5.53;;;;;;;;;;5089855;28;20181;-75
2023/06/02 00:46:41;;;;;;;8.40;6.03;;;;;;;;;;5097998;28;20299;-75
2023/06/02 00:49:07;;;;;;;6.80;6.03;;;;;;;;;;5106792;28;20209;-74
2023/06/02 00:51:33;;;;;;;7.60;5.63;;;;;;;;;;5110592;28;20229;-74
2023/06/02 00:54:00;;;;;;;6.90;6.20;;;;;;;;;;5111460;28;20172;-75
2023/06/02 00:56:27;;;;;;;6.90;6.20;;;;;;;;;;5099933;28;20184;-74
2023/06/02 00:58:53;;;;;;;7.70;6.17;;;;;;;;;;5104746;28;20714;-74
2023/06/02 01:01:20;;;;;;;8.87;6.23;;;;;;;;;;5110526;28;20187;-75
2023/06/02 01:03:48;;;;;;;9.30;6.27;;;;;;;;;;5109564;28;20232;-75
2023/06/02 01:06:22;;;;;;;6.93;6.20;;;;;;;;;;5105619;28;20214;-75
2023/06/02 01:08:49;;;;;;;8.87;6.07;;;;;;;;;;5093236;28;20207;-75
2023/06/02 01:11:16;;;;;;;8.77;6.20;;;;;;;;;;5073187;28;20177;-75
2023/06/02 01:13:42;;;;;;;7.07;6.37;;;;;;;;;;5089114;28;20179;-74
2023/06/02 01:16:12;;;;;;;7.37;6.23;;;;;;;;;;5089210;28;20177;-75
2023/06/02 01:18:40;;;;;;;7.83;5.73;;;;;;;;;;5093464;28;20200;-75
2023/06/02 01:21:07;;;;;;;7.80;5.90;;;;;;;;;;5091356;28;20215;-75
2023/06/02 01:23:36;;;;;;;7.07;6.00;;;;;;;;;;5090069;28;20182;-75
2023/06/02 01:26:05;;;;;;;8.17;5.97;;;;;;;;;;5063602;28;20209;-74
2023/06/02 01:28:31;;;;;;;5.83;5.23;;;;;;;;;;5078091;28;20291;-75
2023/06/02 01:31:27;;;;;;;6.10;5.33;;;;;;;;;;5089712;28;20651;-75
2023/06/02 01:33:55;;;;;;;9.87;6.37;;;;;;;;;;5073260;28;20655;-74
2023/06/02 01:36:23;;;;;;;6.37;5.70;;;;;;;;;;5096707;28;20213;-74
2023/06/02 01:38:49;;;;;;;7.00;5.97;;;;;;;;;;5108198;28;20199;-74
2023/06/02 01:41:16;;;;;;;6.33;5.73;;;;;;;;;;5111464;28;20639;-75
2023/06/02 01:43:43;;;;;;;6.97;5.80;;;;;;;;;;5110260;28;20176;-74
2023/06/02 01:46:10;;;;;;;6.77;5.70;;;;;;;;;;5103669;28;20291;-74
2023/06/02 01:48:36;;;;;;;8.53;5.93;;;;;;;;;;5093041;28;20196;-74
2023/06/02 01:51:02;;;;;;;6.17;5.57;;;;;;;;;;5089499;28;20186;-75
2023/06/02 01:53:28;;;;;;;6.67;5.97;;;;;;;;;;5088418;28;20197;-75
2023/06/02 01:55:54;;;;;;;7.10;6.07;;;;;;;;;;5093142;28;20191;-75
2023/06/02 01:58:21;;;;;;;7.63;5.87;;;;;;;;;;5105427;28;20190;-75
2023/06/02 02:00:47;;;;;;;6.40;5.80;;;;;;;;;;5110241;28;20307;-75
2023/06/02 02:03:13;;;;;;;7.53;5.90;;;;;;;;;;5110218;28;20191;-75
2023/06/02 02:05:39;;;;;;;7.20;5.97;;;;;;;;;;5106190;28;20215;-75
2023/06/02 02:08:05;;;;;;;9.60;6.20;;;;;;;;;;5095994;28;20179;-75
2023/06/02 02:10:32;;;;;;;6.27;4.97;;;;;;;;;;5090588;28;20215;-75
2023/06/02 02:12:58;;;;;;;6.57;5.93;;;;;;;;;;5089797;28;20648;-74
2023/06/02 02:15:25;;;;;;;11.37;6.63;;;;;;;;;;5093408;28;20258;-75
2023/06/02 02:17:52;;;;;;;7.93;6.50;;;;;;;;;;5102147;28;20172;-75
2023/06/02 02:20:19;;;;;;;7.23;6.53;;;;;;;;;;5110876;28;20199;-74
2023/06/02 02:22:46;;;;;;;6.90;6.20;;;;;;;;;;5108501;28;20600;-75
2023/06/02 02:25:12;;;;;;;8.13;5.87;;;;;;;;;;5106930;28;20204;-74
2023/06/02 02:27:39;;;;;;;7.00;6.30;;;;;;;;;;5094599;28;20187;-74
2023/06/02 02:30:06;;;;;;;5.93;5.33;;;;;;;;;;5089155;28;20250;-75
2023/06/02 02:32:34;;;;;;;6.80;6.10;;;;;;;;;;5088290;28;20177;-74
2023/06/02 02:35:00;;;;;;;6.30;5.70;;;;;;;;;;5089514;28;20181;-74
2023/06/02 02:37:30;;;;;;;7.00;6.30;;;;;;;;;;5092380;28;20208;-74
2023/06/02 02:39:57;;;;;;;9.47;6.73;;;;;;;;;;5110499;28;20287;-75
2023/06/02 02:42:24;;;;;;;7.30;6.60;;;;;;;;;;5108113;28;20176;-75
2023/06/02 02:44:50;;;;;;;8.40;6.90;;;;;;;;;;5105213;28;20651;-74
2023/06/02 02:47:16;;;;;;;7.23;6.43;;;;;;;;;;5099602;28;20180;-74
2023/06/02 02:49:42;;;;;;;7.00;5.80;;;;;;;;;;5112854;28;20207;-74
2023/06/02 02:52:08;;;;;;;7.20;6.50;;;;;;;;;;5112446;28;20304;-74
2023/06/02 02:54:35;;;;;;;7.27;6.57;;;;;;;;;;5111836;28;20176;-74
2023/06/02 02:57:01;;;;;;;7.77;6.13;;;;;;;;;;5098076;28;20184;-74
2023/06/02 02:59:30;;;;;;;7.40;6.27;;;;;;;;;;5095012;28;20204;-74
2023/06/02 03:01:58;;;;;;;8.43;6.13;;;;;;;;;;5092406;28;20264;-74
2023/06/02 03:04:25;;;;;;;7.10;6.40;;;;;;;;;;5092112;28;20223;-74
2023/06/02 03:06:54;;;;;;;6.83;6.13;;;;;;;;;;5095994;28;20200;-74
2023/06/02 03:09:23;;;;;;;8.27;6.60;;;;;;;;;;5096161;28;20199;-74
2023/06/02 03:11:49;;;;;;;6.93;6.23;;;;;;;;;;5112380;28;20631;-74
2023/06/02 03:14:15;;;;;;;6.70;5.97;;;;;;;;;;5112311;28;20270;-74
2023/06/02 03:16:44;;;;;;;7.90;6.60;;;;;;;;;;5094660;28;20192;-74
2023/06/02 03:19:15;;;;;;;6.73;5.93;;;;;;;;;;5095688;28;20304;-74
2023/06/02 03:21:44;;;;;;;7.53;6.30;;;;;;;;;;5090899;28;20180;-74
2023/06/02 03:24:13;;;;;;;6.97;6.27;;;;;;;;;;5091250;28;20183;-74
2023/06/02 03:26:45;;;;;;;7.33;6.03;;;;;;;;;;5100137;28;20244;-74
2023/06/02 03:29:13;;;;;;;7.47;6.47;;;;;;;;;;5091353;28;20631;-74
2023/06/02 03:31:41;;;;;;;8.10;6.33;;;;;;;;;;5098782;28;20177;-74
2023/06/02 03:34:08;;;;;;;7.53;6.50;;;;;;;;;;5091365;28;20581;-74
2023/06/02 03:36:35;;;;;;;8.00;6.77;;;;;;;;;;5092255;28;20203;-74
2023/06/02 03:39:05;;;;;;;6.97;6.00;;;;;;;;;;5093663;28;20207;-73
2023/06/02 03:41:32;;;;;;;7.67;6.10;;;;;;;;;;5096352;28;20267;-74
2023/06/02 03:43:59;;;;;;;7.67;6.83;;;;;;;;;;5096126;28;20180;-74
2023/06/02 03:46:25;;;;;;;7.70;6.57;;;;;;;;;;5093091;28;20215;-74
2023/06/02 03:48:51;;;;;;;7.23;6.47;;;;;;;;;;5094800;28;20200;-74
2023/06/02 03:51:18;;;;;;;7.90;6.07;;;;;;;;;;5104910;28;20179;-73
2023/06/02 03:53:44;;;;;;;8.77;6.30;;;;;;;;;;5112327;28;20198;-74
2023/06/02 03:56:11;;;;;;;7.47;6.03;;;;;;;;;;5111940;28;20666;-74
2023/06/02 03:58:37;;;;;;;7.17;6.30;;;;;;;;;;5108719;28;20197;-74
2023/06/02 04:01:04;;;;;;;6.57;5.97;;;;;;;;;;5099200;28;20196;-74
2023/06/02 04:03:37;;;;;;;7.63;6.40;;;;;;;;;;5110719;28;20199;-74
2023/06/02 04:06:06;;;;;;;10.37;6.27;;;;;;;;;;5111959;28;20208;-74
2023/06/02 04:08:33;;;;;;;8.93;6.00;;;;;;;;;;5110477;28;20196;-74
2023/06/02 04:10:59;;;;;;;7.57;6.30;;;;;;;;;;5104266;28;20509;-74
2023/06/02 04:13:25;;;;;;;10.07;6.67;;;;;;;;;;5092525;28;20191;-74
2023/06/02 04:15:52;;;;;;;7.33;6.17;;;;;;;;;;5091369;28;20187;-74
2023/06/02 04:18:19;;;;;;;7.33;6.03;;;;;;;;;;5073846;28;20255;-74
2023/06/02 04:20:46;;;;;;;8.80;6.67;;;;;;;;;;5099103;28;20177;-74
2023/06/02 19:58:23;;;;;;;6.10;4.03;;;;;;;;;;4935721;29;20248;-76
2023/06/02 20:00:49;;;;;;;5.13;4.10;;;;;;;;;;4935653;29;20194;-76
2023/06/02 20:03:16;;;;;;;4.80;3.60;;;;;;;;;;4936649;29;20177;-76
2023/06/02 20:05:42;;;;;;;6.07;4.17;;;;;;;;;;4936415;29;20253;-76
2023/06/02 20:08:08;;;;;;;4.33;3.53;;;;;;;;;;4936733;29;20285;-76
2023/06/02 20:10:34;;;;;;;6.73;3.80;;;;;;;;;;4936853;29;20213;-75
2023/06/02 20:13:01;;;;;;;9.23;3.87;;;;;;;;;;4936279;29;20182;-75
2023/06/02 20:15:27;;;;;;;5.60;3.90;;;;;;;;;;4933388;29;20197;-72
2023/06/02 20:17:53;;;;;;;4.40;3.60;;;;;;;;;;4933983;29;20206;-76
2023/06/02 20:20:19;;;;;;;5.03;3.80;;;;;;;;;;4930271;29;20193;-76
2023/06/02 20:22:45;;;;;;;5.83;4.13;;;;;;;;;;4931751;29;20269;-76
2023/06/02 20:25:11;;;;;;;4.63;4.13;;;;;;;;;;4931763;29;20563;-79
2023/06/02 20:27:38;;;;;;;6.17;3.77;;;;;;;;;;4902448;29;20569;-77
2023/06/02 20:30:04;;;;;;;6.50;4.00;;;;;;;;;;4941585;29;20597;-76
2023/06/02 20:32:31;;;;;;;5.73;4.17;;;;;;;;;;4926674;29;20198;-73
2023/06/02 20:34:57;;;;;;;5.83;4.20;;;;;;;;;;4937473;29;20182;-73
2023/06/02 20:37:23;;;;;;;4.90;3.70;;;;;;;;;;4929374;29;21011;-73
2023/06/02 20:39:49;;;;;;;6.83;4.37;;;;;;;;;;4943365;28;20198;-74
2023/06/02 20:42:15;;;;;;;6.67;4.40;;;;;;;;;;4934670;29;20222;-74
2023/06/02 20:44:42;;;;;;;6.53;4.37;;;;;;;;;;4934092;29;20221;-73
2023/06/02 20:47:09;;;;;;;8.60;4.20;;;;;;;;;;4934428;29;20209;-73
2023/06/02 20:49:36;;;;;;;7.37;4.37;;;;;;;;;;4935374;29;20213;-73
2023/06/02 20:52:02;;;;;;;10.57;4.50;;;;;;;;;;4939858;29;20280;-73
2023/06/02 20:54:28;;;;;;;6.17;4.10;;;;;;;;;;4918888;29;20210;-73
2023/06/02 20:56:54;;;;;;;5.00;4.50;;;;;;;;;;4931371;29;20634;-73
2023/06/02 20:59:20;;;;;;;6.53;4.60;;;;;;;;;;4927712;29;20198;-73
2023/06/02 21:01:46;;;;;;;6.30;4.20;;;;;;;;;;4938862;29;20658;-73
2023/06/02 21:04:13;;;;;;;6.27;4.40;;;;;;;;;;4932017;29;20197;-75
2023/06/02 21:06:39;;;;;;;7.03;3.97;;;;;;;;;;4931507;29;20213;-73
2023/06/02 21:09:06;;;;;;;6.77;3.97;;;;;;;;;;4932647;29;20296;-72
2023/06/02 21:11:32;;;;;;;8.60;4.30;;;;;;;;;;4931209;29;20218;-73
2023/06/02 21:13:58;;;;;;;7.53;3.73;;;;;;;;;;4917815;29;20183;-73
2023/06/02 21:16:28;;;;;;;5.70;3.90;;;;;;;;;;4930755;29;20186;-73
2023/06/02 21:18:54;;;;;;;5.67;4.20;;;;;;;;;;4933278;29;20221;-75
2023/06/02 21:21:20;;;;;;;13.00;4.10;;;;;;;;;;4930962;29;20217;-73
2023/06/02 21:23:46;;;;;;;6.37;3.80;;;;;;;;;;4936908;29;20253;-73
2023/06/02 21:26:13;;;;;;;8.27;4.10;;;;;;;;;;4934297;29;20578;-73
2023/06/02 21:28:39;;;;;;;8.47;4.03;;;;;;;;;;4950045;29;20216;-74
2023/06/02 21:31:05;;;;;;;7.20;4.10;;;;;;;;;;4925603;29;20174;-73
2023/06/02 21:33:31;;;;;;;5.10;3.73;;;;;;;;;;4921184;29;20217;-74
2023/06/02 21:35:57;;;;;;;7.60;3.90;;;;;;;;;;4940880;29;20198;-73
2023/06/02 21:38:23;;;;;;;5.63;3.80;;;;;;;;;;4923953;29;20413;-73
2023/06/02 21:40:49;;;;;;;8.77;3.87;;;;;;;;;;4930276;29;20655;-73
2023/06/02 21:43:18;;;;;;;8.17;4.03;;;;;;;;;;4934908;29;20641;-73
2023/06/02 21:45:44;;;;;;;8.13;3.53;;;;;;;;;;4922952;29;20190;-73
2023/06/02 21:48:10;;;;;;;8.87;3.87;;;;;;;;;;4923150;29;20230;-73
2023/06/02 21:50:36;;;;;;;9.53;4.03;;;;;;;;;;4922677;29;20189;-73
2023/06/02 21:53:02;;;;;;;6.30;4.10;;;;;;;;;;4927188;29;20689;-73
2023/06/02 21:55:28;;;;;;;9.77;3.70;;;;;;;;;;4921927;29;20697;-73
2023/06/02 21:57:54;;;;;;;11.53;4.23;;;;;;;;;;4924505;29;20268;-74
2023/06/02 22:00:21;;;;;;;11.27;4.00;;;;;;;;;;4929138;29;20590;-73
2023/06/02 22:02:47;;;;;;;9.13;3.63;;;;;;;;;;4925979;29;20194;-73
2023/06/02 22:05:15;;;;;;;6.33;3.43;;;;;;;;;;4931280;29;20212;-73
2023/06/02 22:07:41;;;;;;;7.93;3.80;;;;;;;;;;4932401;29;20229;-73
2023/06/02 22:10:08;;;;;;;8.53;3.50;;;;;;;;;;4931742;29;20634;-73
2023/06/02 22:12:34;;;;;;;7.10;3.73;;;;;;;;;;4932614;29;20190;-73
2023/06/02 22:15:00;;;;;;;8.00;3.63;;;;;;;;;;4923725;29;20206;-73
2023/06/02 22:17:27;;;;;;;8.17;3.70;;;;;;;;;;4926212;29;20203;-73
2023/06/02 22:19:53;;;;;;;7.27;3.90;;;;;;;;;;4926280;29;20195;-73
2023/06/02 22:22:19;;;;;;;7.07;3.30;;;;;;;;;;4926425;29;20185;-73
2023/06/02 22:24:45;;;;;;;7.33;3.60;;;;;;;;;;4922755;29;20241;-73
2023/06/02 22:27:11;;;;;;;7.37;3.47;;;;;;;;;;4919242;29;20202;-73
2023/06/02 22:29:37;;;;;;;7.97;3.77;;;;;;;;;;4918116;29;20179;-73
2023/06/02 22:32:04;;;;;;;9.53;3.73;;;;;;;;;;4918910;29;20638;-73
2023/06/02 22:34:30;;;;;;;7.97;3.60;;;;;;;;;;4917999;29;20270;-73
2023/06/02 22:36:56;;;;;;;6.07;3.27;;;;;;;;;;4920511;29;20194;-73
2023/06/02 22:39:22;;;;;;;8.47;3.57;;;;;;;;;;4919309;29;20281;-73
2023/06/02 22:41:49;;;;;;;7.03;3.30;;;;;;;;;;4920344;29;20264;-73
2023/06/02 22:44:15;;;;;;;7.00;3.53;;;;;;;;;;4924200;29;20186;-73
2023/06/02 22:46:41;;;;;;;8.87;3.30;;;;;;;;;;4921957;29;20242;-73
2023/06/02 22:49:07;;;;;;;12.07;3.40;;;;;;;;;;4918536;29;20235;-73
2023/06/02 22:51:33;;;;;;;7.40;3.40;;;;;;;;;;4920854;29;20182;-73
2023/06/02 22:53:59;;;;;;;7.90;3.33;;;;;;;;;;4919154;29;20182;-73
2023/06/02 22:56:26;;;;;;;9.70;3.40;;;;;;;;;;4919826;29;20217;-73
2023/06/02 22:58:52;;;;;;;5.97;3.30;;;;;;;;;;4921189;29;20205;-73
2023/06/02 23:01:18;;;;;;;7.83;3.30;;;;;;;;;;4936079;29;20201;-73
2023/06/02 23:03:44;;;;;;;5.90;3.20;;;;;;;;;;4919573;29;20186;-73
2023/06/02 23:06:10;;;;;;;7.50;3.30;;;;;;;;;;4923244;29;20689;-73
2023/06/02 23:08:36;;;;;;;7.70;3.50;;;;;;;;;;4923876;29;20201;-73
2023/06/02 23:11:02;;;;;;;9.40;3.50;;;;;;;;;;4923495;29;20194;-73
2023/06/02 23:13:28;;;;;;;7.87;3.37;;;;;;;;;;4926921;29;20200;-73
2023/06/02 23:15:55;;;;;;;10.00;3.33;;;;;;;;;;4926653;29;20177;-73
2023/06/02 23:18:21;;;;;;;7.90;3.40;;;;;;;;;;4924086;29;20296;-73
2023/06/02 23:20:47;;;;;;;9.27;3.20;;;;;;;;;;4926258;29;20627;-73
2023/06/02 23:23:13;;;;;;;6.77;3.43;;;;;;;;;;4927893;29;20201;-73
2023/06/02 23:25:39;;;;;;;9.87;3.00;;;;;;;;;;4923180;29;20178;-73
2023/06/02 23:28:05;;;;;;;7.70;3.30;;;;;;;;;;4925208;29;20210;-73
2023/06/02 23:30:31;;;;;;;6.73;3.40;;;;;;;;;;4926012;29;20274;-73
2023/06/02 23:32:57;;;;;;;8.23;3.10;;;;;;;;;;4924805;29;20179;-73
2023/06/02 23:35:23;;;;;;;6.70;3.00;;;;;;;;;;4929030;29;20564;-72
2023/06/02 23:37:50;;;;;;;8.83;4.20;;;;;;;;;;4938555;29;20201;-73
2023/06/02 23:40:16;;;;;;;6.60;2.80;;;;;;;;;;4938077;29;20272;-73
2023/06/02 23:42:42;;;;;;;5.77;2.90;;;;;;;;;;4925538;29;20190;-72
2023/06/02 23:45:09;;;;;;;6.57;2.97;;;;;;;;;;4927024;29;20253;-73
2023/06/02 23:47:35;;;;;;;10.23;3.53;;;;;;;;;;4922601;29;20213;-72
2023/06/02 23:50:01;;;;;;;6.60;3.30;;;;;;;;;;4924310;29;20665;-73
2023/06/02 23:52:28;;;;;;;6.20;3.10;;;;;;;;;;4921929;29;20182;-73
2023/06/02 23:54:54;;;;;;;7.43;3.30;;;;;;;;;;4928242;29;20182;-73
2023/06/02 23:57:20;;;;;;;7.00;3.10;;;;;;;;;;4923265;29;20608;-73
2023/06/02 23:59:46;;;;;;;6.57;2.90;;;;;;;;;;4924081;29;20584;-73
